CheckWX is a tool to help pilots better visualize weather data.  It is not intended as a substitute for an official pre-flight weather briefing.

18:29:06 UTC

KHUL METAR
Houlton International Airport
Houlton, Maine, USA
Current

36 mins ago

KHUL 221753Z AUTO 32010KT OVC037 A3017 RMK AO2 SLPNO 11028 21128 50004 $
Observed
Feb-22 @ 17:53 UTC
Wind
  • 320° at 10 KTS
Visibility
Cloud Levels
  • Overcast at 3,700' AGL
Altimeter
30.17" Hg
Pressure
1021.72 hPa
Previous

2 hours ago

KHUL 221653Z AUTO 33010KT 10SM OVC038 M03/M11 A3018 RMK AO2 SLP228 T10331106
Observed
Feb-22 @ 16:53 UTC
Wind
  • 330° at 10 KTS
Visibility
10 SM
Flight Rules
VFR
Cloud Levels
  • Overcast at 3,800' AGL
Temperature
-3°C / 27°F
Dewpoint
-11°C / 12°F
Humidity
54%
Altimeter
30.18" Hg
Pressure
1022.8 hPa
Previous

3 hours ago

KHUL 221553Z AUTO 30009G16KT 10SM SCT033 M03/M10 A3017 RMK AO2 SLP225 T10331100
Observed
Feb-22 @ 15:53 UTC
Wind
  • 300° at 9 KTS
  • Gusting to KTS
Visibility
10 SM
Flight Rules
VFR
Cloud Levels
  • Scattered at 3,300' AGL
Temperature
-3°C / 27°F
Dewpoint
-10°C / 14°F
Humidity
59%
Altimeter
30.17" Hg
Pressure
1022.5 hPa